createdAt,value
2023-01-17T00:02:23.457Z,4.83
2023-01-17T00:05:09.942Z,4.72
2023-01-17T00:07:56.235Z,4.79
2023-01-17T00:10:29.167Z,4.72
2023-01-17T00:13:00.590Z,4.68
2023-01-17T00:15:31.211Z,4.67
2023-01-17T00:18:00.676Z,4.68
2023-01-17T00:20:49.910Z,4.76
2023-01-17T00:23:53.255Z,4.83
2023-01-17T00:26:23.316Z,4.94
2023-01-17T00:28:50.978Z,4.99
2023-01-17T00:31:18.900Z,5.00
2023-01-17T00:33:46.643Z,5.01
2023-01-17T00:36:14.255Z,5.02
2023-01-17T00:38:42.051Z,5.14
2023-01-17T00:41:11.958Z,5.08
2023-01-17T00:43:59.753Z,5.11
2023-01-17T00:46:46.345Z,5.04
2023-01-17T00:49:32.483Z,4.95
2023-01-17T00:52:19.149Z,4.85
2023-01-17T00:55:05.375Z,4.76
2023-01-17T00:57:51.332Z,4.61
2023-01-17T01:00:39.416Z,4.59
2023-01-17T01:03:28.067Z,4.51
2023-01-17T01:06:14.405Z,4.30
2023-01-17T01:09:00.627Z,4.35
2023-01-17T01:11:46.669Z,4.30
2023-01-17T01:14:32.818Z,4.19
2023-01-17T01:17:20.000Z,4.15
2023-01-17T01:20:06.089Z,4.11
2023-01-17T01:22:52.131Z,4.12
2023-01-17T01:25:38.194Z,4.09
2023-01-17T01:28:28.347Z,4.07
2023-01-17T01:31:14.527Z,4.11
2023-01-17T01:33:44.439Z,4.15
2023-01-17T01:36:13.254Z,4.06
2023-01-17T01:38:41.798Z,4.09
2023-01-17T01:41:10.549Z,4.17
2023-01-17T01:43:47.393Z,4.18
2023-01-17T01:46:21.890Z,4.19
2023-01-17T01:48:57.599Z,4.19
2023-01-17T01:51:33.655Z,4.01
2023-01-17T01:54:11.816Z,3.87
2023-01-17T01:56:42.282Z,3.87
2023-01-17T01:59:16.726Z,3.87
2023-01-17T02:01:45.517Z,3.90
2023-01-17T02:04:16.029Z,4.04
2023-01-17T02:06:52.209Z,4.15
2023-01-17T02:09:22.132Z,4.25
2023-01-17T02:11:51.300Z,4.24
2023-01-17T02:14:22.844Z,4.21
2023-01-17T02:17:21.172Z,4.28
2023-01-17T02:20:50.370Z,4.21
2023-01-17T02:24:04.114Z,4.07
2023-01-17T02:26:54.291Z,4.01
2023-01-17T02:30:20.707Z,3.99
2023-01-17T02:33:06.679Z,4.07
2023-01-17T02:35:51.353Z,4.13
2023-01-17T02:38:35.044Z,4.21
2023-01-17T02:41:10.254Z,4.26
2023-01-17T02:43:40.176Z,4.22
2023-01-17T02:46:09.973Z,4.19
2023-01-17T02:48:40.718Z,4.25
2023-01-17T02:51:39.536Z,3.97
2023-01-17T02:54:45.473Z,3.91
2023-01-17T02:57:34.863Z,3.95
2023-01-17T03:00:21.382Z,3.95
2023-01-17T03:03:05.294Z,4.10
2023-01-17T03:05:44.491Z,4.05
2023-01-17T03:08:14.967Z,4.14
2023-01-17T03:10:45.729Z,4.20
2023-01-17T03:13:14.495Z,4.11
2023-01-17T03:15:43.541Z,4.19
2023-01-17T03:18:16.101Z,4.13
2023-01-17T03:20:46.189Z,4.05
2023-01-17T03:23:15.048Z,3.95
2023-01-17T03:25:43.779Z,3.94
2023-01-17T03:28:12.259Z,3.86
2023-01-17T03:30:40.817Z,3.79
2023-01-17T03:33:09.893Z,3.79
2023-01-17T03:35:38.579Z,3.73
2023-01-17T03:38:08.396Z,3.81
2023-01-17T03:40:36.891Z,3.87
2023-01-17T03:43:05.567Z,4.02
2023-01-17T03:45:34.158Z,3.95
2023-01-17T03:48:02.883Z,4.07
2023-01-17T03:50:31.321Z,4.05
2023-01-17T03:52:59.980Z,4.10
2023-01-17T03:55:29.799Z,4.25
2023-01-17T03:57:58.385Z,4.29
2023-01-17T04:00:27.144Z,4.44
2023-01-17T04:02:55.826Z,4.50
2023-01-17T04:05:24.486Z,4.48
2023-01-17T04:07:53.054Z,4.43
2023-01-17T04:10:21.579Z,4.39
2023-01-17T04:12:51.479Z,4.43
2023-01-17T04:15:20.076Z,4.41
2023-01-17T04:17:48.832Z,4.43
2023-01-17T04:20:32.056Z,4.58
2023-01-17T04:23:00.901Z,4.55
2023-01-17T04:25:31.090Z,4.61
2023-01-17T04:28:03.550Z,4.57
2023-01-17T04:30:33.583Z,4.48
2023-01-17T04:33:02.248Z,4.47
2023-01-17T04:35:33.379Z,4.59
2023-01-17T04:38:02.009Z,4.67
2023-01-17T04:40:30.805Z,4.64
2023-01-17T04:43:00.685Z,4.62
2023-01-17T04:45:29.213Z,4.45
2023-01-17T04:48:03.055Z,4.31
2023-01-17T04:50:32.493Z,4.44
2023-01-17T04:53:01.817Z,4.39
2023-01-17T04:55:30.324Z,4.31
2023-01-17T04:58:00.869Z,4.36
2023-01-17T05:00:30.135Z,4.25
2023-01-17T05:02:58.842Z,4.30
2023-01-17T05:05:27.538Z,4.27
2023-01-17T05:07:57.138Z,4.31
2023-01-17T05:10:26.641Z,4.37
2023-01-17T05:12:56.608Z,4.33
2023-01-17T05:15:28.107Z,4.42
2023-01-17T05:17:57.359Z,4.43
2023-01-17T05:20:27.667Z,4.44
2023-01-17T05:22:57.749Z,4.43
2023-01-17T05:25:28.633Z,4.41
2023-01-17T05:27:57.372Z,4.33
2023-01-17T05:30:29.036Z,4.44
2023-01-17T05:32:59.607Z,4.42
2023-01-17T05:35:32.538Z,4.45
2023-01-17T05:38:01.219Z,4.41
2023-01-17T05:40:34.006Z,4.28
2023-01-17T05:43:04.242Z,4.34
2023-01-17T05:45:35.476Z,4.23
2023-01-17T05:48:04.906Z,4.28
2023-01-17T05:50:37.275Z,4.22
2023-01-17T05:53:09.337Z,3.93
2023-01-17T05:55:39.982Z,3.77
2023-01-17T05:58:13.892Z,3.60
2023-01-17T06:00:44.737Z,3.42
2023-01-17T06:03:14.220Z,3.16
2023-01-17T06:05:44.976Z,3.03
2023-01-17T06:08:14.182Z,2.92
2023-01-17T06:10:43.074Z,2.81
2023-01-17T06:13:15.362Z,2.67
2023-01-17T06:15:45.646Z,2.57
2023-01-17T06:18:16.779Z,2.44
2023-01-17T06:20:46.270Z,2.31
2023-01-17T06:23:16.289Z,2.13
2023-01-17T06:25:47.379Z,1.98
2023-01-17T06:28:18.600Z,1.80
2023-01-17T06:30:49.211Z,1.65
2023-01-17T06:33:18.537Z,1.60
2023-01-17T06:35:51.921Z,1.51
2023-01-17T06:38:21.169Z,1.42
2023-01-17T06:40:50.399Z,1.31
2023-01-17T06:43:18.939Z,1.09
2023-01-17T06:45:51.228Z,1.04
2023-01-17T06:48:20.101Z,0.95
2023-01-17T06:50:49.910Z,1.07
2023-01-17T06:53:18.879Z,1.07
2023-01-17T06:55:48.012Z,1.06
2023-01-17T06:58:16.901Z,1.11
2023-01-17T07:00:45.799Z,1.20
2023-01-17T07:03:21.682Z,1.26
2023-01-17T07:05:51.405Z,1.36
2023-01-17T07:08:21.470Z,1.42
2023-01-17T07:10:50.577Z,1.52
2023-01-17T07:13:19.189Z,1.62
2023-01-17T07:15:48.690Z,1.84
2023-01-17T07:18:23.080Z,2.07
2023-01-17T07:20:51.883Z,2.10
2023-01-17T07:23:22.004Z,2.31
2023-01-17T07:25:53.726Z,2.47
2023-01-17T07:28:22.978Z,2.55
2023-01-17T07:30:52.530Z,2.74
2023-01-17T07:33:22.914Z,2.89
2023-01-17T07:35:51.693Z,3.10
2023-01-17T07:38:21.686Z,3.25
2023-01-17T07:40:50.407Z,3.35
2023-01-17T07:43:19.135Z,3.34
2023-01-17T07:45:51.949Z,3.41
2023-01-17T07:48:24.821Z,3.48
2023-01-17T07:50:55.633Z,3.48
2023-01-17T07:53:26.749Z,3.42
2023-01-17T07:55:56.393Z,3.40
2023-01-17T07:58:25.207Z,3.49
2023-01-17T08:00:54.189Z,3.66
2023-01-17T08:03:24.360Z,3.83
2023-01-17T08:05:57.792Z,3.88
2023-01-17T08:08:26.956Z,4.02
2023-01-17T08:10:56.592Z,4.07
2023-01-17T08:13:25.880Z,4.15
2023-01-17T08:15:54.899Z,4.23
2023-01-17T08:18:25.058Z,4.14
2023-01-17T08:20:54.298Z,4.09
2023-01-17T08:23:23.713Z,4.11
2023-01-17T08:25:52.402Z,4.07
2023-01-17T08:28:21.242Z,4.17
2023-01-17T08:30:50.042Z,4.16
2023-01-17T08:33:18.714Z,4.33
2023-01-17T08:35:54.871Z,4.56
2023-01-17T08:38:24.501Z,4.75
2023-01-17T08:40:53.433Z,4.84
2023-01-17T08:43:22.422Z,5.04
2023-01-17T08:45:55.998Z,5.14
2023-01-17T08:48:24.991Z,4.88
2023-01-17T08:50:55.229Z,4.92
2023-01-17T08:53:24.046Z,4.91
2023-01-17T08:56:00.384Z,4.85
2023-01-17T08:58:31.248Z,4.90
2023-01-17T09:01:03.171Z,4.87
2023-01-17T09:03:33.022Z,4.97
2023-01-17T09:06:07.396Z,5.03
2023-01-17T09:08:37.603Z,4.86
2023-01-17T09:11:07.821Z,4.97
2023-01-17T09:13:37.199Z,5.01
2023-01-17T09:16:07.616Z,5.03
2023-01-17T09:18:37.853Z,5.03
2023-01-17T09:21:17.170Z,4.98
2023-01-17T09:23:46.335Z,5.13
2023-01-17T09:26:21.523Z,5.21
2023-01-17T09:28:50.668Z,5.29
2023-01-17T09:31:21.756Z,5.34
2023-01-17T09:33:50.969Z,5.44
2023-01-17T09:36:28.894Z,5.42
2023-01-17T09:38:59.220Z,5.43
2023-01-17T09:41:32.835Z,5.51
2023-01-17T09:44:08.721Z,5.72
2023-01-17T09:46:44.704Z,5.68
2023-01-17T09:49:31.457Z,5.85
2023-01-17T09:52:03.175Z,6.12
2023-01-17T09:54:38.424Z,6.33
2023-01-17T09:57:26.582Z,6.30
2023-01-17T10:00:07.741Z,6.51
2023-01-17T10:02:56.863Z,6.80
2023-01-17T10:05:49.239Z,6.96
2023-01-17T10:08:41.694Z,7.00
2023-01-17T10:11:37.648Z,6.99
2023-01-17T10:14:40.040Z,7.14
2023-01-17T10:17:21.147Z,7.22
2023-01-17T10:20:10.139Z,7.33
2023-01-17T10:23:03.903Z,7.71
2023-01-17T10:25:47.526Z,7.78
2023-01-17T10:28:20.852Z,8.00
2023-01-17T10:30:53.002Z,7.95
2023-01-17T10:33:28.526Z,7.60
2023-01-17T10:36:00.438Z,7.75
2023-01-17T10:38:37.136Z,8.13
2023-01-17T10:41:15.488Z,8.27
2023-01-17T10:43:56.247Z,8.68
2023-01-17T10:46:33.503Z,9.16
2023-01-17T10:49:03.809Z,9.13
2023-01-17T10:52:00.963Z,9.42
2023-01-17T10:55:05.033Z,9.66
2023-01-17T10:57:42.031Z,9.49
2023-01-17T11:00:35.559Z,9.18
2023-01-17T11:03:05.307Z,8.97
2023-01-17T11:05:35.628Z,9.03
2023-01-17T11:08:08.123Z,8.68
2023-01-17T11:10:44.762Z,8.38
2023-01-17T11:13:30.689Z,7.93
2023-01-17T11:16:04.266Z,8.28
2023-01-17T11:18:37.709Z,7.95
2023-01-17T11:21:17.123Z,7.50
2023-01-17T11:23:48.758Z,7.79
2023-01-17T11:26:28.435Z,7.48
2023-01-17T11:29:18.054Z,7.20
2023-01-17T11:31:46.844Z,7.27
2023-01-17T11:34:18.711Z,7.35
2023-01-17T11:36:49.185Z,7.09
2023-01-17T11:39:29.995Z,6.97
2023-01-17T11:41:59.016Z,6.77
2023-01-17T11:44:32.047Z,7.22
2023-01-17T11:47:24.878Z,6.78
2023-01-17T11:49:53.666Z,6.88
2023-01-17T11:52:26.245Z,7.43
2023-01-17T11:54:56.702Z,7.51
2023-01-17T11:57:29.781Z,7.88
2023-01-17T12:00:16.016Z,8.01
2023-01-17T12:03:15.258Z,8.03
2023-01-17T12:06:00.083Z,7.94
2023-01-17T12:08:51.289Z,8.11
2023-01-17T12:11:32.104Z,8.65
2023-01-17T12:14:15.977Z,8.90
2023-01-17T12:17:08.042Z,9.05
2023-01-17T12:20:00.928Z,8.98
2023-01-17T12:23:05.620Z,8.53
2023-01-17T12:25:54.766Z,8.23
2023-01-17T12:28:52.555Z,7.73
2023-01-17T12:31:33.619Z,7.56
2023-01-17T12:34:22.779Z,7.43
2023-01-17T12:36:58.945Z,7.28
2023-01-17T12:39:34.579Z,7.14
2023-01-17T12:42:10.052Z,7.39
2023-01-17T12:44:54.557Z,7.81
2023-01-17T12:47:23.689Z,7.85
2023-01-17T12:50:07.667Z,8.04
2023-01-17T12:52:54.957Z,8.17
2023-01-17T12:55:48.215Z,8.45
2023-01-17T12:58:23.745Z,8.33
2023-01-17T13:01:01.172Z,8.28
2023-01-17T13:03:48.289Z,8.66
2023-01-17T13:06:29.105Z,8.29
2023-01-17T13:09:02.843Z,8.26
2023-01-17T13:11:41.186Z,8.48
2023-01-17T13:14:11.801Z,8.18
2023-01-17T13:16:47.439Z,8.20
2023-01-17T13:19:29.073Z,8.34
2023-01-17T13:22:02.206Z,8.53
2023-01-17T13:24:41.840Z,8.51
2023-01-17T13:28:00.097Z,8.15
2023-01-17T13:31:02.333Z,7.99
2023-01-17T13:33:47.710Z,8.42
2023-01-17T13:36:46.622Z,8.45
2023-01-17T13:39:46.212Z,8.00
2023-01-17T13:42:26.617Z,7.85
2023-01-17T13:44:55.777Z,7.54
2023-01-17T13:47:42.708Z,7.33
2023-01-17T13:50:52.218Z,7.06
2023-01-17T13:53:58.975Z,7.01
2023-01-17T13:56:37.512Z,6.93
2023-01-17T13:59:38.524Z,6.91
2023-01-17T14:02:38.929Z,6.74
2023-01-17T14:05:11.823Z,6.93
2023-01-17T14:07:48.681Z,6.62
2023-01-17T14:10:33.790Z,6.56
2023-01-17T14:13:06.689Z,6.46
2023-01-17T14:15:48.235Z,6.57
2023-01-17T14:18:35.004Z,6.54
2023-01-17T14:21:13.655Z,6.61
2023-01-17T14:24:04.101Z,6.48
2023-01-17T14:26:56.517Z,6.19
2023-01-17T14:30:03.335Z,6.06
2023-01-17T14:32:37.213Z,5.95
2023-01-17T14:35:09.245Z,5.89
2023-01-17T14:37:47.516Z,6.30
2023-01-17T14:40:20.449Z,6.33
2023-01-17T14:42:59.695Z,6.07
2023-01-17T14:45:32.627Z,6.10
2023-01-17T14:48:05.439Z,6.16
2023-01-17T14:50:39.334Z,6.18
2023-01-17T14:53:21.589Z,5.97
2023-01-17T14:56:00.916Z,5.85
2023-01-17T14:58:33.037Z,5.85
2023-01-17T15:01:10.367Z,5.71
2023-01-17T15:03:47.656Z,5.79
2023-01-17T15:06:22.063Z,5.75
2023-01-17T15:08:54.128Z,5.44
2023-01-17T15:11:28.117Z,5.45
2023-01-17T15:14:01.040Z,5.32
2023-01-17T15:16:34.395Z,5.20
2023-01-17T15:19:11.112Z,4.98
2023-01-17T15:21:43.778Z,4.97
2023-01-17T15:24:20.987Z,4.77
2023-01-17T15:26:50.511Z,4.77
2023-01-17T15:29:26.547Z,4.47
2023-01-17T15:31:59.236Z,4.39
2023-01-17T15:34:31.048Z,4.31
2023-01-17T15:37:04.236Z,4.13
2023-01-17T15:39:36.754Z,3.92
2023-01-17T15:42:09.530Z,3.85
2023-01-17T15:44:48.607Z,3.75
2023-01-17T15:47:32.824Z,3.65
2023-01-17T15:50:24.855Z,3.46
2023-01-17T15:52:56.514Z,3.39
2023-01-17T15:55:30.725Z,3.30
2023-01-17T15:58:00.053Z,3.19
2023-01-17T16:00:38.302Z,3.13
2023-01-17T16:03:24.848Z,3.18
2023-01-17T16:05:57.796Z,3.19
2023-01-17T16:08:39.643Z,3.28
2023-01-17T16:11:13.071Z,3.34
2023-01-17T16:13:43.427Z,3.18
2023-01-17T16:16:23.186Z,3.08
2023-01-17T16:19:01.823Z,3.17
2023-01-17T16:21:32.853Z,3.16
2023-01-17T16:24:02.925Z,3.24
2023-01-17T16:26:31.649Z,3.30
2023-01-17T16:29:00.264Z,3.21
2023-01-17T16:31:28.918Z,3.06
2023-01-17T16:33:59.364Z,2.92
2023-01-17T16:36:28.171Z,2.85
2023-01-17T16:38:57.016Z,2.87
2023-01-17T16:41:25.723Z,2.76
2023-01-17T16:44:01.269Z,2.84
2023-01-17T16:46:31.022Z,2.81
2023-01-17T16:49:02.352Z,2.71
2023-01-17T16:51:31.358Z,2.58
2023-01-17T16:54:00.479Z,2.60
2023-01-17T16:56:29.307Z,2.53
2023-01-17T16:58:58.083Z,2.54
2023-01-17T17:01:26.910Z,2.40
2023-01-17T17:03:56.763Z,2.38
2023-01-17T17:06:27.256Z,2.34
2023-01-17T17:08:55.901Z,2.16
2023-01-17T17:11:24.634Z,2.09
2023-01-17T17:13:53.832Z,1.91
2023-01-17T17:16:29.901Z,2.01
2023-01-17T17:19:01.816Z,2.02
2023-01-17T17:21:33.857Z,1.91
2023-01-17T17:24:04.336Z,1.98
2023-01-17T17:26:37.726Z,1.96
2023-01-17T17:29:10.498Z,2.01
2023-01-17T17:31:40.923Z,1.98
2023-01-17T17:34:12.490Z,2.02
2023-01-17T17:36:43.223Z,2.04
2023-01-17T17:39:15.853Z,2.10
2023-01-17T17:41:46.572Z,2.05
2023-01-17T17:44:16.434Z,1.99
2023-01-17T17:46:49.192Z,1.91
2023-01-17T17:49:18.047Z,1.91
2023-01-17T17:51:48.041Z,1.82
2023-01-17T17:54:18.985Z,1.80
2023-01-17T17:56:48.346Z,1.78
2023-01-17T17:59:19.550Z,1.87
2023-01-17T18:01:49.307Z,1.87
2023-01-17T18:04:19.080Z,1.90
2023-01-17T18:06:49.425Z,1.96
2023-01-17T18:09:18.621Z,2.04
2023-01-17T18:11:47.776Z,2.09
2023-01-17T18:14:20.821Z,2.16
2023-01-17T18:16:50.765Z,2.27
2023-01-17T18:19:22.399Z,2.27
2023-01-17T18:21:53.762Z,2.35
2023-01-17T18:24:24.445Z,2.47
2023-01-17T18:26:56.050Z,2.71
2023-01-17T18:29:26.987Z,2.83
2023-01-17T18:31:56.638Z,2.81
2023-01-17T18:34:29.384Z,2.87
2023-01-17T18:36:59.735Z,2.86
2023-01-17T18:39:31.273Z,3.03
2023-01-17T18:42:00.513Z,2.91
2023-01-17T18:44:30.083Z,2.96
2023-01-17T18:47:01.969Z,2.99
2023-01-17T18:49:30.577Z,2.90
2023-01-17T18:52:01.153Z,2.77
2023-01-17T18:54:29.971Z,2.84
2023-01-17T18:57:00.741Z,2.86
2023-01-17T18:59:29.381Z,2.84
2023-01-17T19:01:58.851Z,2.78
2023-01-17T19:04:28.838Z,2.87
2023-01-17T19:06:57.428Z,2.82
2023-01-17T19:09:27.660Z,2.95
2023-01-17T19:11:56.979Z,2.81
2023-01-17T19:14:25.521Z,2.79
2023-01-17T19:16:54.249Z,2.79
2023-01-17T19:19:23.067Z,2.74
2023-01-17T19:21:52.734Z,2.90
2023-01-17T19:24:21.235Z,2.95
2023-01-17T19:26:53.329Z,2.98
2023-01-17T19:29:22.832Z,2.97
2023-01-17T19:31:51.565Z,3.04
2023-01-17T19:34:20.357Z,2.98
2023-01-17T19:36:49.215Z,2.96
2023-01-17T19:39:18.172Z,3.01
2023-01-17T19:41:47.239Z,2.95
2023-01-17T19:44:17.812Z,2.88
2023-01-17T19:46:47.152Z,2.75
2023-01-17T19:49:19.819Z,2.68
2023-01-17T19:51:49.554Z,2.63
2023-01-17T19:54:18.614Z,2.78
2023-01-17T19:56:47.342Z,2.91
2023-01-17T19:59:20.932Z,2.89
2023-01-17T20:01:56.862Z,2.97
2023-01-17T20:04:25.574Z,3.03
2023-01-17T20:06:54.955Z,2.95
2023-01-17T20:09:25.064Z,2.89
2023-01-17T20:11:53.881Z,2.83
2023-01-17T20:14:24.045Z,3.05
2023-01-17T20:16:53.626Z,3.05
2023-01-17T20:19:22.766Z,3.18
2023-01-17T20:21:51.314Z,3.07
2023-01-17T20:24:20.044Z,3.09
2023-01-17T20:26:50.109Z,3.23
2023-01-17T20:29:19.771Z,3.09
2023-01-17T20:31:53.387Z,2.83
2023-01-17T20:34:26.370Z,2.88
2023-01-17T20:36:57.916Z,2.80
2023-01-17T20:39:26.577Z,3.16
2023-01-17T20:41:55.299Z,3.20
2023-01-17T20:44:24.082Z,3.06
2023-01-17T20:46:54.072Z,3.18
2023-01-17T20:49:22.652Z,3.23
2023-01-17T20:51:51.531Z,3.42
2023-01-17T20:54:21.256Z,3.29
2023-01-17T20:56:50.612Z,3.23
2023-01-17T20:59:21.609Z,2.86
2023-01-17T21:01:51.806Z,3.14
2023-01-17T21:04:26.008Z,3.36
2023-01-17T21:06:55.281Z,3.30
2023-01-17T21:09:24.169Z,3.29
2023-01-17T21:11:54.440Z,3.20
2023-01-17T21:14:23.076Z,3.14
2023-01-17T21:16:51.726Z,2.98
2023-01-17T21:19:21.722Z,2.71
2023-01-17T21:21:51.184Z,2.92
2023-01-17T21:24:20.111Z,3.13
2023-01-17T21:26:51.521Z,2.91
2023-01-17T21:29:20.309Z,2.53
2023-01-17T21:31:49.005Z,2.54
2023-01-17T21:34:17.628Z,2.39
2023-01-17T21:36:47.783Z,2.20
2023-01-17T21:39:19.799Z,2.04
2023-01-17T21:41:50.877Z,2.03
2023-01-17T21:44:22.274Z,2.25
2023-01-17T21:46:55.943Z,2.09
2023-01-17T21:49:25.308Z,2.06
2023-01-17T21:52:13.071Z,2.05
2023-01-17T21:54:59.620Z,2.05
2023-01-17T21:57:45.725Z,2.19
2023-01-17T22:00:16.298Z,1.92
2023-01-17T22:02:46.186Z,2.00
2023-01-17T22:05:16.382Z,2.03
2023-01-17T22:08:00.503Z,2.30
2023-01-17T22:10:29.582Z,2.39
2023-01-17T22:12:58.594Z,2.66
2023-01-17T22:15:28.438Z,2.81
2023-01-17T22:17:58.599Z,2.82
2023-01-17T22:20:30.347Z,2.91
2023-01-17T22:23:00.318Z,3.02
2023-01-17T22:25:28.981Z,2.94
2023-01-17T22:27:59.480Z,3.11
2023-01-17T22:30:28.342Z,3.14
2023-01-17T22:32:58.235Z,3.15
2023-01-17T22:35:27.166Z,3.07
2023-01-17T22:37:55.934Z,2.86
2023-01-17T22:40:26.164Z,2.97
2023-01-17T22:42:54.912Z,2.86
2023-01-17T22:45:25.869Z,2.74
2023-01-17T22:47:54.422Z,2.75
2023-01-17T22:50:24.026Z,2.42
2023-01-17T22:52:52.604Z,2.60
2023-01-17T22:55:21.595Z,2.79
2023-01-17T22:57:51.657Z,2.93
2023-01-17T23:00:21.088Z,2.89
2023-01-17T23:02:49.672Z,2.94
2023-01-17T23:05:18.405Z,2.87
2023-01-17T23:07:51.339Z,2.55
2023-01-17T23:10:34.123Z,2.75
2023-01-17T23:13:04.001Z,2.86
2023-01-17T23:15:50.295Z,2.90
2023-01-17T23:18:36.640Z,2.98
2023-01-17T23:21:07.799Z,2.89
2023-01-17T23:23:36.301Z,2.98
2023-01-17T23:26:05.195Z,3.03
2023-01-17T23:28:34.140Z,3.12
2023-01-17T23:31:06.239Z,3.20
2023-01-17T23:33:34.850Z,3.20
2023-01-17T23:36:03.380Z,3.02
2023-01-17T23:38:33.881Z,3.10
2023-01-17T23:41:37.180Z,3.05
2023-01-17T23:44:07.101Z,2.86
2023-01-17T23:46:35.875Z,2.80
2023-01-17T23:49:04.476Z,2.66
2023-01-17T23:51:32.946Z,2.42
2023-01-17T23:54:05.489Z,2.65
2023-01-17T23:56:34.214Z,2.70
2023-01-17T23:59:04.461Z,2.62
